Aviation Digital Data Service (ADDS)

Output produced by METARs form (2255 UTC 20 January 2019)
found at http://www.aviationweather.gov/metar/data/
 
METAR text: RJSC 202240Z 25013G29KT 220V290 0400 R01/0500V0750N SHSN VV003 M03/M04 Q1009 RMK A2980
Conditions at: RJSC (YAMAGATA(CIV/JGS, JP) observed 2240 UTC 20 January 2019
Temperature: -3.0°C (27°F)
Dewpoint: -4.0°C (25°F) [RH = 93%]
Pressure (altimeter): 29.79 inches Hg (1009.0 mb)
Winds: from the WSW (250 degrees) at 15 MPH (13 knots; 6.7 m/s)
gusting to 33 MPH (29 knots; 14.9 m/s)
Visibility: 0.25 miles (0.40 km)
Ceiling: indefinite ceiling with vertical visibility of 300 feet AGL
Clouds: obscured sky
Weather: SHSN  (snow showers)

METAR text: RJSC 201000Z 35003KT 2500 -SHSNRA BR FEW002 SCT005 BKN008 01/01 Q1003
Conditions at: RJSC (YAMAGATA(CIV/JGS, JP) observed 1000 UTC 20 January 2019
Temperature: 1.0°C (34°F)
Dewpoint: 1.0°C (34°F) [RH = 100%]
Pressure (altimeter): 29.62 inches Hg (1003.0 mb)
Winds: from the N (350 degrees) at 3 MPH (3 knots; 1.5 m/s)
Visibility: 1.55 miles (2.49 km)
Ceiling: 800 feet AGL
Clouds: few clouds at 200 feet AGL
scattered clouds at 500 feet AGL
broken clouds at 800 feet AGL
Weather: -SHSN -SHRA BR  (light snow showers, light rain showers, mist)

METAR text: RJSC 200920Z 07002KT 2500 -SHSNRA BR FEW002 SCT005 BKN010 00/00 Q1003 RMK 2ST002 4ST005 7ST010 A2962
Conditions at: RJSC (YAMAGATA(CIV/JGS, JP) observed 0920 UTC 20 January 2019
Temperature: 0.0°C (32°F)
Dewpoint: 0.0°C (32°F) [RH = 100%]
Pressure (altimeter): 29.62 inches Hg (1003.0 mb)
Winds: from the ENE (70 degrees) at 2 MPH (2 knots; 1.0 m/s)
Visibility: 1.55 miles (2.49 km)
Ceiling: 1000 feet AGL
Clouds: few clouds at 200 feet AGL
scattered clouds at 500 feet AGL
broken clouds at 1000 feet AGL
Weather: -SHSN -SHRA BR  (light snow showers, light rain showers, mist)

METAR text: RJSC 200900Z 02001KT 1600 -SHSNRA BR FEW002 SCT005 BKN010 00/00 Q1003
Conditions at: RJSC (YAMAGATA(CIV/JGS, JP) observed 0900 UTC 20 January 2019
Temperature: 0.0°C (32°F)
Dewpoint: 0.0°C (32°F) [RH = 100%]
Pressure (altimeter): 29.62 inches Hg (1003.0 mb)
Winds: from the NNE (20 degrees) at 1 MPH (1 knots; 0.5 m/s)
Visibility: 0.99 miles (1.59 km)
Ceiling: 1000 feet AGL
Clouds: few clouds at 200 feet AGL
scattered clouds at 500 feet AGL
broken clouds at 1000 feet AGL
Weather: -SHSN -SHRA BR  (light snow showers, light rain showers, mist)

METAR text: RJSC 200800Z VRB02KT 1200 R01/P2000N -SHRASN BR FEW002 SCT005 BKN015 01/01 Q1003
Conditions at: RJSC (YAMAGATA(CIV/JGS, JP) observed 0800 UTC 20 January 2019
Temperature: 1.0°C (34°F)
Dewpoint: 1.0°C (34°F) [RH = 100%]
Pressure (altimeter): 29.62 inches Hg (1003.0 mb)
Winds: variable direction winds at 2 MPH (2 knots; 1.0 m/s)
Visibility: 0.75 miles (1.21 km)
Ceiling: 1500 feet AGL
Clouds: few clouds at 200 feet AGL
scattered clouds at 500 feet AGL
broken clouds at 1500 feet AGL
Weather: -SHRA -SHSN BR  (light rain showers, light snow showers, mist)

METAR text: RJSC 200700Z VRB01KT 2500 -SHRASN FEW003 SCT006 BKN020 01/01 Q1003
Conditions at: RJSC (YAMAGATA(CIV/JGS, JP) observed 0700 UTC 20 January 2019
Temperature: 1.0°C (34°F)
Dewpoint: 1.0°C (34°F) [RH = 100%]
Pressure (altimeter): 29.62 inches Hg (1003.0 mb)
Winds: variable direction winds at 1 MPH (1 knots; 0.5 m/s)
Visibility: 1.55 miles (2.49 km)
Ceiling: 2000 feet AGL
Clouds: few clouds at 300 feet AGL
scattered clouds at 600 feet AGL
broken clouds at 2000 feet AGL
Weather: -SHRA -SHSN  (light rain showers, light snow showers)

METAR text: RJSC 200600Z 17003KT 140V220 2000 R01/1900D -SHSN FEW003 SCT006 BKN015 01/01 Q1004
Conditions at: RJSC (YAMAGATA(CIV/JGS, JP) observed 0600 UTC 20 January 2019
Temperature: 1.0°C (34°F)
Dewpoint: 1.0°C (34°F) [RH = 100%]
Pressure (altimeter): 29.65 inches Hg (1004.0 mb)
Winds: from the S (170 degrees) at 3 MPH (3 knots; 1.5 m/s)
Visibility: 1.24 miles (2.00 km)
Ceiling: 1500 feet AGL
Clouds: few clouds at 300 feet AGL
scattered clouds at 600 feet AGL
broken clouds at 1500 feet AGL
Weather: -SHSN  (light snow showers)

METAR text: RJSC 200525Z 36001KT 2000 -SHSN FEW003 SCT005 BKN015 01/00 Q1004 RMK 2ST003 3ST005 7CU015 A2965
Conditions at: RJSC (YAMAGATA(CIV/JGS, JP) observed 0525 UTC 20 January 2019
Temperature: 1.0°C (34°F)
Dewpoint: 0.0°C (32°F) [RH = 93%]
Pressure (altimeter): 29.65 inches Hg (1004.0 mb)
Winds: from the N (360 degrees) at 1 MPH (1 knots; 0.5 m/s)
Visibility: 1.24 miles (2.00 km)
Ceiling: 1500 feet AGL
Clouds: few clouds at 300 feet AGL
scattered clouds at 500 feet AGL
broken clouds at 1500 feet AGL
Weather: -SHSN  (light snow showers)

METAR text: RJSC 200500Z 35004KT 1300 R01/1800D -SHSN FEW003 SCT005 BKN012 01/00 Q1004
Conditions at: RJSC (YAMAGATA(CIV/JGS, JP) observed 0500 UTC 20 January 2019
Temperature: 1.0°C (34°F)
Dewpoint: 0.0°C (32°F) [RH = 93%]
Pressure (altimeter): 29.65 inches Hg (1004.0 mb)
Winds: from the N (350 degrees) at 5 MPH (4 knots; 2.1 m/s)
Visibility: 0.81 miles (1.30 km)
Ceiling: 1200 feet AGL
Clouds: few clouds at 300 feet AGL
scattered clouds at 500 feet AGL
broken clouds at 1200 feet AGL
Weather: -SHSN  (light snow showers)

METAR text: RJSC 200440Z 34004KT 2000 -SHSNRA FEW003 SCT006 BKN012 01/00 Q1004 RMK 2ST003 3ST006 7CU012 A2966
Conditions at: RJSC (YAMAGATA(CIV/JGS, JP) observed 0440 UTC 20 January 2019
Temperature: 1.0°C (34°F)
Dewpoint: 0.0°C (32°F) [RH = 93%]
Pressure (altimeter): 29.65 inches Hg (1004.0 mb)
Winds: from the NNW (340 degrees) at 5 MPH (4 knots; 2.1 m/s)
Visibility: 1.24 miles (2.00 km)
Ceiling: 1200 feet AGL
Clouds: few clouds at 300 feet AGL
scattered clouds at 600 feet AGL
broken clouds at 1200 feet AGL
Weather: -SHSN -SHRA  (light snow showers, light rain showers)

METAR text: RJSC 200430Z 32003KT 290V350 3000 -SHRA BR FEW003 SCT006 BKN012 01/00 Q1004 RMK 1ST003 3ST006 7CU012 A2966
Conditions at: RJSC (YAMAGATA(CIV/JGS, JP) observed 0430 UTC 20 January 2019
Temperature: 1.0°C (34°F)
Dewpoint: 0.0°C (32°F) [RH = 93%]
Pressure (altimeter): 29.65 inches Hg (1004.0 mb)
Winds: from the NW (320 degrees) at 3 MPH (3 knots; 1.5 m/s)
Visibility: 1.86 miles (2.99 km)
Ceiling: 1200 feet AGL
Clouds: few clouds at 300 feet AGL
scattered clouds at 600 feet AGL
broken clouds at 1200 feet AGL
Weather: -SHRA BR  (light rain showers, mist)

METAR text: RJSC 200400Z 00000KT 4000 -SHRASN FEW003 SCT008 BKN015 01/M00 Q1004
Conditions at: RJSC (YAMAGATA(CIV/JGS, JP) observed 0400 UTC 20 January 2019
Temperature: 1.0°C (34°F)
Dewpoint: 0.0°C (32°F) [RH = 93%]
Pressure (altimeter): 29.65 inches Hg (1004.0 mb)
Winds: calm
Visibility: 2.49 miles (4.01 km)
Ceiling: 1500 feet AGL
Clouds: few clouds at 300 feet AGL
scattered clouds at 800 feet AGL
broken clouds at 1500 feet AGL
Weather: -SHRA -SHSN  (light rain showers, light snow showers)

METAR text: RJSC 200300Z 00000KT 4000 -SHSN FEW003 SCT008 BKN015 01/M00 Q1006
Conditions at: RJSC (YAMAGATA(CIV/JGS, JP) observed 0300 UTC 20 January 2019
Temperature: 1.0°C (34°F)
Dewpoint: 0.0°C (32°F) [RH = 93%]
Pressure (altimeter): 29.70 inches Hg (1006.0 mb)
Winds: calm
Visibility: 2.49 miles (4.01 km)
Ceiling: 1500 feet AGL
Clouds: few clouds at 300 feet AGL
scattered clouds at 800 feet AGL
broken clouds at 1500 feet AGL
Weather: -SHSN  (light snow showers)

METAR text: RJSC 200200Z 19001KT 4000 -SHSN FEW003 SCT008 BKN015 00/M00 Q1008
Conditions at: RJSC (YAMAGATA(CIV/JGS, JP) observed 0200 UTC 20 January 2019
Temperature: 0.0°C (32°F)
Dewpoint: 0.0°C (32°F) [RH = 100%]
Pressure (altimeter): 29.76 inches Hg (1008.0 mb)
Winds: from the S (190 degrees) at 1 MPH (1 knots; 0.5 m/s)
Visibility: 2.49 miles (4.01 km)
Ceiling: 1500 feet AGL
Clouds: few clouds at 300 feet AGL
scattered clouds at 800 feet AGL
broken clouds at 1500 feet AGL
Weather: -SHSN  (light snow showers)

METAR text: RJSC 200100Z VRB02KT 3000 -SHSN FEW003 SCT008 BKN015 M01/M01 Q1009
Conditions at: RJSC (YAMAGATA(CIV/JGS, JP) observed 0100 UTC 20 January 2019
Temperature: -1.0°C (30°F)
Dewpoint: -1.0°C (30°F) [RH = 100%]
Pressure (altimeter): 29.79 inches Hg (1009.0 mb)
Winds: variable direction winds at 2 MPH (2 knots; 1.0 m/s)
Visibility: 1.86 miles (2.99 km)
Ceiling: 1500 feet AGL
Clouds: few clouds at 300 feet AGL
scattered clouds at 800 feet AGL
broken clouds at 1500 feet AGL
Weather: -SHSN  (light snow showers)

METAR text: RJSC 200000Z 25003KT 3000 -SHSN FEW003 SCT010 BKN020 M01/M01 Q1010
Conditions at: RJSC (YAMAGATA(CIV/JGS, JP) observed 0000 UTC 20 January 2019
Temperature: -1.0°C (30°F)
Dewpoint: -1.0°C (30°F) [RH = 100%]
Pressure (altimeter): 29.82 inches Hg (1010.0 mb)
Winds: from the WSW (250 degrees) at 3 MPH (3 knots; 1.5 m/s)
Visibility: 1.86 miles (2.99 km)
Ceiling: 2000 feet AGL
Clouds: few clouds at 300 feet AGL
scattered clouds at 1000 feet AGL
broken clouds at 2000 feet AGL
Weather: -SHSN  (light snow showers)

METAR text: RJSC 192331Z VRB02KT 4000 -SHSN FEW003 SCT010 BKN020 M01/M02 Q1010 RMK 1ST003 4ST010 7CU020 A2983
Conditions at: RJSC (YAMAGATA(CIV/JGS, JP) observed 2331 UTC 19 January 2019
Temperature: -1.0°C (30°F)
Dewpoint: -2.0°C (28°F) [RH = 93%]
Pressure (altimeter): 29.82 inches Hg (1010.0 mb)
Winds: variable direction winds at 2 MPH (2 knots; 1.0 m/s)
Visibility: 2.49 miles (4.01 km)
Ceiling: 2000 feet AGL
Clouds: few clouds at 300 feet AGL
scattered clouds at 1000 feet AGL
broken clouds at 2000 feet AGL
Weather: -SHSN  (light snow showers)

METAR text: RJSC 192318Z VRB01KT 3000 -SHSN FEW003 SCT010 BKN020 M01/M02 Q1010 RMK 1ST003 4ST010 7CU020 A2984
Conditions at: RJSC (YAMAGATA(CIV/JGS, JP) observed 2318 UTC 19 January 2019
Temperature: -1.0°C (30°F)
Dewpoint: -2.0°C (28°F) [RH = 93%]
Pressure (altimeter): 29.82 inches Hg (1010.0 mb)
Winds: variable direction winds at 1 MPH (1 knots; 0.5 m/s)
Visibility: 1.86 miles (2.99 km)
Ceiling: 2000 feet AGL
Clouds: few clouds at 300 feet AGL
scattered clouds at 1000 feet AGL
broken clouds at 2000 feet AGL
Weather: -SHSN  (light snow showers)

METAR text: RJSC 192300Z 11003KT 4000 -SHSN FEW003 SCT010 BKN020 M01/M02 Q1010
Conditions at: RJSC (YAMAGATA(CIV/JGS, JP) observed 2300 UTC 19 January 2019
Temperature: -1.0°C (30°F)
Dewpoint: -2.0°C (28°F) [RH = 93%]
Pressure (altimeter): 29.82 inches Hg (1010.0 mb)
Winds: from the ESE (110 degrees) at 3 MPH (3 knots; 1.5 m/s)
Visibility: 2.49 miles (4.01 km)
Ceiling: 2000 feet AGL
Clouds: few clouds at 300 feet AGL
scattered clouds at 1000 feet AGL
broken clouds at 2000 feet AGL
Weather: -SHSN  (light snow showers)

METAR text: RJSC 192240Z 12004KT 6000 -SHSN FEW003 SCT010 BKN030 M01/M02 Q1011 RMK 1ST003 3ST010 7CU030 A2985
Conditions at: RJSC (YAMAGATA(CIV/JGS, JP) observed 2240 UTC 19 January 2019
Temperature: -1.0°C (30°F)
Dewpoint: -2.0°C (28°F) [RH = 93%]
Pressure (altimeter): 29.85 inches Hg (1011.0 mb)
Winds: from the ESE (120 degrees) at 5 MPH (4 knots; 2.1 m/s)
Visibility: 4 miles ( 6 km)
Ceiling: 3000 feet AGL
Clouds: few clouds at 300 feet AGL
scattered clouds at 1000 feet AGL
broken clouds at 3000 feet AGL
Weather: -SHSN  (light snow showers)